Ana Sayfa
METAR-TAF:

METAR-TAF

Havaalanları :

New Castle, Pensilvanya, Amerika Birleşik Devletleri

Enlem: 41-01-31N, Boylam: 080-24-48W, yükseklik: 326 m

Güncel hava durumu gözlemi

Rapor saat 03:56 UTC de 50 dakika önce yapıldı.
Rüzgar güneybatıdan 11 kt ve 15 kt'a kadar ani rüzgarlar
Sıcaklık 13°C
Nem 94%
Basınç 1002 hPa
Görüş mesafesi: 16.1 km
1500 ft yükseklikte parçalı çok bulutlu
1900 ft yükseklikte çok bulutlu

METAR: KUCP 100356Z AUTO 23011G15KT 10SM BKN015 OVC019 13/12 A2959 RMK AO2 RAE35 SLP034 P0000 T01280117

Saat: 23:46 (04:46 UTC)


TAF: eksik

4.000'den fazla havaalanı için hava durumu gözlemleri ve tahminleri (METAR ve TAF raporları).

Kullanılabilir istasyonlar harita üzerinde sarı ve kırmızı noktalarla gösterilir.

İstasyonun adını görmek için fareyi noktanın üzerinde gezdirin.

Sonrasında hava gözlem ve tahminlerini görmek için tıklayın.

Haritayı değiştirmek için: yaklaştırmak için siyah artı işaretli yeşil düğmeye ve uzaklaştırmak için de eksi işaretli düğmeye hızla tıklayın; bitişik haritalar için yeşil okları kullanın.


METAR-TAF: